Terminal Aerodrome Forecast
Issued by NWS Kansas City/Pleasant Hill, MO

Home | Current Version | Previous Version | Text Only | Print | Product List | Glossary On
Versions: 1 2 3 4 5 6 7 8 9 10 11 12 13 14 15 16 17
000
FTUS43 KEAX 200500
TAFMCI
TAF
KMCI 200520Z 2006/2106 08014KT P6SM VCSH OVC040
     FM200800 06015KT 5SM RA OVC023
     FM201100 06013KT 4SM -RA BR OVC007
     FM201800 03011KT P6SM VCSH OVC030
     FM202300 04009KT P6SM OVC030=

USA.gov is the U.S. government's official web portal to all federal, state and local government web resources and services.